sensor_id;sensor_type;location;lat;lon;timestamp;temperature;humidity
3842;DHT22;1936;47.074;15.336;2024-01-07T00:01:37;4.70;99.90
3842;DHT22;1936;47.074;15.336;2024-01-07T00:03:41;4.80;99.90
3842;DHT22;1936;47.074;15.336;2024-01-07T00:05:45;4.80;99.90
3842;DHT22;1936;47.074;15.336;2024-01-07T00:07:49;4.80;99.90
3842;DHT22;1936;47.074;15.336;2024-01-07T00:09:53;4.70;99.90
3842;DHT22;1936;47.074;15.336;2024-01-07T00:11:56;4.70;99.90
3842;DHT22;1936;47.074;15.336;2024-01-07T00:14:01;4.80;99.90
3842;DHT22;1936;47.074;15.336;2024-01-07T00:16:05;4.80;99.90
3842;DHT22;1936;47.074;15.336;2024-01-07T00:18:07;4.80;99.90
3842;DHT22;1936;47.074;15.336;2024-01-07T00:20:11;4.80;99.90
3842;DHT22;1936;47.074;15.336;2024-01-07T00:22:13;4.80;99.90
3842;DHT22;1936;47.074;15.336;2024-01-07T00:24:17;4.80;99.90
3842;DHT22;1936;47.074;15.336;2024-01-07T00:26:20;4.90;99.90
3842;DHT22;1936;47.074;15.336;2024-01-07T00:28:22;4.80;99.90
3842;DHT22;1936;47.074;15.336;2024-01-07T00:30:27;4.80;99.90
3842;DHT22;1936;47.074;15.336;2024-01-07T00:32:31;4.90;99.90
3842;DHT22;1936;47.074;15.336;2024-01-07T00:34:35;4.90;99.90
3842;DHT22;1936;47.074;15.336;2024-01-07T00:36:37;4.90;99.90
3842;DHT22;1936;47.074;15.336;2024-01-07T00:38:41;4.80;99.90
3842;DHT22;1936;47.074;15.336;2024-01-07T00:40:45;4.80;99.90
3842;DHT22;1936;47.074;15.336;2024-01-07T00:42:48;4.90;99.90
3842;DHT22;1936;47.074;15.336;2024-01-07T00:44:53;4.80;99.90
3842;DHT22;1936;47.074;15.336;2024-01-07T00:47:01;4.80;99.90
3842;DHT22;1936;47.074;15.336;2024-01-07T00:49:06;4.80;99.90
3842;DHT22;1936;47.074;15.336;2024-01-07T00:51:10;4.80;99.90
3842;DHT22;1936;47.074;15.336;2024-01-07T00:53:14;4.90;99.90
3842;DHT22;1936;47.074;15.336;2024-01-07T00:55:17;4.90;99.90
3842;DHT22;1936;47.074;15.336;2024-01-07T00:57:21;4.90;99.90
3842;DHT22;1936;47.074;15.336;2024-01-07T00:59:25;4.90;99.90
3842;DHT22;1936;47.074;15.336;2024-01-07T01:01:31;4.90;99.90
3842;DHT22;1936;47.074;15.336;2024-01-07T01:03:35;4.90;99.90
3842;DHT22;1936;47.074;15.336;2024-01-07T01:05:38;5.00;99.90
3842;DHT22;1936;47.074;15.336;2024-01-07T01:08:07;5.00;99.90
3842;DHT22;1936;47.074;15.336;2024-01-07T01:10:10;4.90;99.90
3842;DHT22;1936;47.074;15.336;2024-01-07T01:12:18;4.90;99.90
3842;DHT22;1936;47.074;15.336;2024-01-07T01:14:21;4.90;99.90
3842;DHT22;1936;47.074;15.336;2024-01-07T01:16:24;4.90;99.90
3842;DHT22;1936;47.074;15.336;2024-01-07T01:18:28;5.00;99.90
3842;DHT22;1936;47.074;15.336;2024-01-07T01:20:33;5.00;99.90
3842;DHT22;1936;47.074;15.336;2024-01-07T01:22:36;5.00;99.90
3842;DHT22;1936;47.074;15.336;2024-01-07T01:24:40;4.90;99.90
3842;DHT22;1936;47.074;15.336;2024-01-07T01:26:44;4.90;99.90
3842;DHT22;1936;47.074;15.336;2024-01-07T01:28:47;4.90;99.90
3842;DHT22;1936;47.074;15.336;2024-01-07T01:30:51;5.00;99.90
3842;DHT22;1936;47.074;15.336;2024-01-07T01:32:54;4.90;99.90
3842;DHT22;1936;47.074;15.336;2024-01-07T01:34:58;4.90;99.90
3842;DHT22;1936;47.074;15.336;2024-01-07T01:37:03;5.00;99.90
3842;DHT22;1936;47.074;15.336;2024-01-07T01:39:07;5.00;99.90
3842;DHT22;1936;47.074;15.336;2024-01-07T01:41:10;5.00;99.90
3842;DHT22;1936;47.074;15.336;2024-01-07T01:43:22;5.00;99.90
3842;DHT22;1936;47.074;15.336;2024-01-07T01:45:25;5.00;99.90
3842;DHT22;1936;47.074;15.336;2024-01-07T01:47:29;4.90;99.90
3842;DHT22;1936;47.074;15.336;2024-01-07T01:49:32;5.00;99.90
3842;DHT22;1936;47.074;15.336;2024-01-07T01:51:37;5.00;99.90
3842;DHT22;1936;47.074;15.336;2024-01-07T01:53:42;5.00;99.90
3842;DHT22;1936;47.074;15.336;2024-01-07T01:55:46;5.10;99.90
3842;DHT22;1936;47.074;15.336;2024-01-07T01:57:49;5.10;99.90
3842;DHT22;1936;47.074;15.336;2024-01-07T02:02:27;5.10;99.90
3842;DHT22;1936;47.074;15.336;2024-01-07T02:04:32;5.10;99.90
3842;DHT22;1936;47.074;15.336;2024-01-07T02:06:40;5.10;99.90
3842;DHT22;1936;47.074;15.336;2024-01-07T02:08:51;5.10;99.90
3842;DHT22;1936;47.074;15.336;2024-01-07T02:10:55;5.10;99.90
3842;DHT22;1936;47.074;15.336;2024-01-07T02:13:02;5.10;99.90
3842;DHT22;1936;47.074;15.336;2024-01-07T02:15:11;5.10;99.90
3842;DHT22;1936;47.074;15.336;2024-01-07T02:17:19;5.10;99.90
3842;DHT22;1936;47.074;15.336;2024-01-07T02:19:25;5.10;99.90
3842;DHT22;1936;47.074;15.336;2024-01-07T02:21:31;5.10;99.90
3842;DHT22;1936;47.074;15.336;2024-01-07T02:23:36;5.10;99.90
3842;DHT22;1936;47.074;15.336;2024-01-07T02:25:51;5.20;99.90
3842;DHT22;1936;47.074;15.336;2024-01-07T02:27:57;5.10;99.90
3842;DHT22;1936;47.074;15.336;2024-01-07T02:30:01;5.20;99.90
3842;DHT22;1936;47.074;15.336;2024-01-07T02:32:06;5.10;99.90
3842;DHT22;1936;47.074;15.336;2024-01-07T02:34:10;5.20;99.90
3842;DHT22;1936;47.074;15.336;2024-01-07T02:36:21;5.20;99.90
3842;DHT22;1936;47.074;15.336;2024-01-07T02:38:32;5.20;99.90
3842;DHT22;1936;47.074;15.336;2024-01-07T02:40:36;5.20;99.90
3842;DHT22;1936;47.074;15.336;2024-01-07T02:42:40;5.20;99.90
3842;DHT22;1936;47.074;15.336;2024-01-07T02:44:47;5.20;99.90
3842;DHT22;1936;47.074;15.336;2024-01-07T02:47:07;5.20;99.90
3842;DHT22;1936;47.074;15.336;2024-01-07T02:49:13;5.20;99.90
3842;DHT22;1936;47.074;15.336;2024-01-07T02:51:21;5.30;99.90
3842;DHT22;1936;47.074;15.336;2024-01-07T02:53:28;5.20;99.90
3842;DHT22;1936;47.074;15.336;2024-01-07T02:55:38;5.20;99.90
3842;DHT22;1936;47.074;15.336;2024-01-07T02:57:42;5.30;99.90
3842;DHT22;1936;47.074;15.336;2024-01-07T02:59:47;5.30;99.90
3842;DHT22;1936;47.074;15.336;2024-01-07T03:01:54;5.30;99.90
3842;DHT22;1936;47.074;15.336;2024-01-07T03:03:58;5.30;99.90
3842;DHT22;1936;47.074;15.336;2024-01-07T03:06:02;5.30;99.90
3842;DHT22;1936;47.074;15.336;2024-01-07T03:08:15;5.40;99.90
3842;DHT22;1936;47.074;15.336;2024-01-07T03:10:24;5.40;99.90
3842;DHT22;1936;47.074;15.336;2024-01-07T03:12:31;5.30;99.90
3842;DHT22;1936;47.074;15.336;2024-01-07T03:14:37;5.30;99.90
3842;DHT22;1936;47.074;15.336;2024-01-07T03:16:44;5.40;99.90
3842;DHT22;1936;47.074;15.336;2024-01-07T03:19:03;5.40;99.90
3842;DHT22;1936;47.074;15.336;2024-01-07T03:21:16;5.40;99.90
3842;DHT22;1936;47.074;15.336;2024-01-07T03:23:20;5.40;99.90
3842;DHT22;1936;47.074;15.336;2024-01-07T03:25:38;5.30;99.90
3842;DHT22;1936;47.074;15.336;2024-01-07T03:27:49;5.30;99.90
3842;DHT22;1936;47.074;15.336;2024-01-07T03:30:13;5.40;99.90
3842;DHT22;1936;47.074;15.336;2024-01-07T03:32:17;5.40;99.90
3842;DHT22;1936;47.074;15.336;2024-01-07T03:34:21;5.40;99.90
3842;DHT22;1936;47.074;15.336;2024-01-07T03:36:29;5.30;99.90
3842;DHT22;1936;47.074;15.336;2024-01-07T03:38:33;5.40;99.90
3842;DHT22;1936;47.074;15.336;2024-01-07T03:40:37;5.30;99.90
3842;DHT22;1936;47.074;15.336;2024-01-07T03:42:43;5.30;99.90
3842;DHT22;1936;47.074;15.336;2024-01-07T03:44:47;5.30;99.90
3842;DHT22;1936;47.074;15.336;2024-01-07T03:46:54;5.40;99.90
3842;DHT22;1936;47.074;15.336;2024-01-07T03:49:02;5.30;99.90
3842;DHT22;1936;47.074;15.336;2024-01-07T03:51:05;5.40;99.90
3842;DHT22;1936;47.074;15.336;2024-01-07T03:53:09;5.40;99.90
3842;DHT22;1936;47.074;15.336;2024-01-07T03:55:14;5.40;99.90
3842;DHT22;1936;47.074;15.336;2024-01-07T03:57:23;5.40;99.90
3842;DHT22;1936;47.074;15.336;2024-01-07T03:59:27;5.30;99.90
3842;DHT22;1936;47.074;15.336;2024-01-07T04:01:30;5.20;99.90
3842;DHT22;1936;47.074;15.336;2024-01-07T04:03:38;5.20;99.90
3842;DHT22;1936;47.074;15.336;2024-01-07T04:05:42;5.20;99.90
3842;DHT22;1936;47.074;15.336;2024-01-07T04:07:47;5.10;99.90
3842;DHT22;1936;47.074;15.336;2024-01-07T04:10:16;5.10;99.90
3842;DHT22;1936;47.074;15.336;2024-01-07T04:12:19;5.20;99.90
3842;DHT22;1936;47.074;15.336;2024-01-07T04:14:23;5.10;99.90
3842;DHT22;1936;47.074;15.336;2024-01-07T04:16:29;5.20;99.90
3842;DHT22;1936;47.074;15.336;2024-01-07T04:18:37;5.00;99.90
3842;DHT22;1936;47.074;15.336;2024-01-07T04:20:44;5.10;99.90
3842;DHT22;1936;47.074;15.336;2024-01-07T04:22:52;5.00;99.90
3842;DHT22;1936;47.074;15.336;2024-01-07T04:25:13;5.00;99.90
3842;DHT22;1936;47.074;15.336;2024-01-07T04:27:19;4.90;99.90
3842;DHT22;1936;47.074;15.336;2024-01-07T04:29:26;4.90;99.90
3842;DHT22;1936;47.074;15.336;2024-01-07T04:31:41;4.90;99.90
3842;DHT22;1936;47.074;15.336;2024-01-07T04:34:03;4.90;99.90
3842;DHT22;1936;47.074;15.336;2024-01-07T04:36:06;4.90;99.90
3842;DHT22;1936;47.074;15.336;2024-01-07T04:38:18;4.80;99.90
3842;DHT22;1936;47.074;15.336;2024-01-07T04:40:36;4.80;99.90
3842;DHT22;1936;47.074;15.336;2024-01-07T04:42:50;4.80;99.90
3842;DHT22;1936;47.074;15.336;2024-01-07T04:44:53;4.70;99.90
3842;DHT22;1936;47.074;15.336;2024-01-07T04:46:57;4.70;99.90
3842;DHT22;1936;47.074;15.336;2024-01-07T04:49:02;4.60;99.90
3842;DHT22;1936;47.074;15.336;2024-01-07T04:51:08;4.60;99.90
3842;DHT22;1936;47.074;15.336;2024-01-07T04:53:11;4.60;99.90
3842;DHT22;1936;47.074;15.336;2024-01-07T04:55:15;4.60;99.90
3842;DHT22;1936;47.074;15.336;2024-01-07T04:57:21;4.60;99.90
3842;DHT22;1936;47.074;15.336;2024-01-07T04:59:25;4.50;99.90
3842;DHT22;1936;47.074;15.336;2024-01-07T05:01:28;4.50;99.90
3842;DHT22;1936;47.074;15.336;2024-01-07T05:03:32;4.50;99.90
3842;DHT22;1936;47.074;15.336;2024-01-07T05:06:11;4.50;99.90
3842;DHT22;1936;47.074;15.336;2024-01-07T05:08:27;4.40;99.90
3842;DHT22;1936;47.074;15.336;2024-01-07T05:10:31;4.40;99.90
3842;DHT22;1936;47.074;15.336;2024-01-07T05:12:34;4.40;99.90
3842;DHT22;1936;47.074;15.336;2024-01-07T05:14:38;4.40;99.90
3842;DHT22;1936;47.074;15.336;2024-01-07T05:16:41;4.30;99.90
3842;DHT22;1936;47.074;15.336;2024-01-07T05:18:44;4.30;99.90
3842;DHT22;1936;47.074;15.336;2024-01-07T05:20:51;4.30;99.90
3842;DHT22;1936;47.074;15.336;2024-01-07T05:22:55;4.30;99.90
3842;DHT22;1936;47.074;15.336;2024-01-07T05:25:00;4.30;99.90
3842;DHT22;1936;47.074;15.336;2024-01-07T05:27:03;4.30;99.90
3842;DHT22;1936;47.074;15.336;2024-01-07T05:29:06;4.30;99.90
3842;DHT22;1936;47.074;15.336;2024-01-07T05:31:14;4.20;99.90
3842;DHT22;1936;47.074;15.336;2024-01-07T05:33:18;4.30;99.90
3842;DHT22;1936;47.074;15.336;2024-01-07T05:35:21;4.20;99.90
3842;DHT22;1936;47.074;15.336;2024-01-07T05:37:25;4.20;99.90
3842;DHT22;1936;47.074;15.336;2024-01-07T05:39:30;4.20;99.90
3842;DHT22;1936;47.074;15.336;2024-01-07T05:41:33;4.10;99.90
3842;DHT22;1936;47.074;15.336;2024-01-07T05:43:36;4.20;99.90
3842;DHT22;1936;47.074;15.336;2024-01-07T05:45:40;4.20;99.90
3842;DHT22;1936;47.074;15.336;2024-01-07T05:47:45;4.10;99.90
3842;DHT22;1936;47.074;15.336;2024-01-07T05:49:48;4.10;99.90
3842;DHT22;1936;47.074;15.336;2024-01-07T05:51:54;4.10;99.90
3842;DHT22;1936;47.074;15.336;2024-01-07T05:53:58;4.10;99.90
3842;DHT22;1936;47.074;15.336;2024-01-07T05:56:03;4.10;99.90
3842;DHT22;1936;47.074;15.336;2024-01-07T05:58:06;4.10;99.90
3842;DHT22;1936;47.074;15.336;2024-01-07T06:00:11;4.10;99.90
3842;DHT22;1936;47.074;15.336;2024-01-07T06:02:15;4.00;99.90
3842;DHT22;1936;47.074;15.336;2024-01-07T06:04:18;4.10;99.90
3842;DHT22;1936;47.074;15.336;2024-01-07T06:06:21;4.10;99.90
3842;DHT22;1936;47.074;15.336;2024-01-07T06:08:25;4.00;99.90
3842;DHT22;1936;47.074;15.336;2024-01-07T06:10:29;4.00;99.90
3842;DHT22;1936;47.074;15.336;2024-01-07T06:12:33;4.00;99.90
3842;DHT22;1936;47.074;15.336;2024-01-07T06:14:37;4.00;99.90
3842;DHT22;1936;47.074;15.336;2024-01-07T06:16:40;4.00;99.90
3842;DHT22;1936;47.074;15.336;2024-01-07T06:18:43;4.00;99.90
3842;DHT22;1936;47.074;15.336;2024-01-07T06:20:47;4.00;99.90
3842;DHT22;1936;47.074;15.336;2024-01-07T06:22:50;4.00;99.90
3842;DHT22;1936;47.074;15.336;2024-01-07T06:24:53;4.00;99.90
3842;DHT22;1936;47.074;15.336;2024-01-07T06:29:35;4.00;99.90
3842;DHT22;1936;47.074;15.336;2024-01-07T06:31:43;4.00;99.90
3842;DHT22;1936;47.074;15.336;2024-01-07T06:33:47;4.00;99.90
3842;DHT22;1936;47.074;15.336;2024-01-07T06:35:50;4.00;99.90
3842;DHT22;1936;47.074;15.336;2024-01-07T06:37:53;4.00;99.90
3842;DHT22;1936;47.074;15.336;2024-01-07T06:39:55;4.00;99.90
3842;DHT22;1936;47.074;15.336;2024-01-07T06:42:00;3.90;99.90
3842;DHT22;1936;47.074;15.336;2024-01-07T06:44:04;4.00;99.90
3842;DHT22;1936;47.074;15.336;2024-01-07T06:46:09;3.90;99.90
3842;DHT22;1936;47.074;15.336;2024-01-07T06:48:12;3.90;99.90
3842;DHT22;1936;47.074;15.336;2024-01-07T06:50:16;3.90;99.90
3842;DHT22;1936;47.074;15.336;2024-01-07T06:52:21;3.90;99.90
3842;DHT22;1936;47.074;15.336;2024-01-07T06:54:25;3.90;99.90
3842;DHT22;1936;47.074;15.336;2024-01-07T06:56:29;3.80;99.90
3842;DHT22;1936;47.074;15.336;2024-01-07T06:58:32;3.90;99.90
3842;DHT22;1936;47.074;15.336;2024-01-07T07:00:35;3.90;99.90
3842;DHT22;1936;47.074;15.336;2024-01-07T07:02:40;3.80;99.90
3842;DHT22;1936;47.074;15.336;2024-01-07T07:04:43;3.80;99.90
3842;DHT22;1936;47.074;15.336;2024-01-07T07:06:47;3.80;99.90
3842;DHT22;1936;47.074;15.336;2024-01-07T07:08:51;3.80;99.90
3842;DHT22;1936;47.074;15.336;2024-01-07T07:10:54;3.80;99.90
3842;DHT22;1936;47.074;15.336;2024-01-07T07:12:58;3.80;99.90
3842;DHT22;1936;47.074;15.336;2024-01-07T07:15:02;3.80;99.90
3842;DHT22;1936;47.074;15.336;2024-01-07T07:17:06;3.80;99.90
3842;DHT22;1936;47.074;15.336;2024-01-07T07:19:09;3.80;99.90
3842;DHT22;1936;47.074;15.336;2024-01-07T07:21:16;3.80;99.90
3842;DHT22;1936;47.074;15.336;2024-01-07T07:23:20;3.80;99.90
3842;DHT22;1936;47.074;15.336;2024-01-07T07:25:23;3.80;99.90
3842;DHT22;1936;47.074;15.336;2024-01-07T07:27:27;3.80;99.90
3842;DHT22;1936;47.074;15.336;2024-01-07T07:29:30;3.90;99.90
3842;DHT22;1936;47.074;15.336;2024-01-07T07:31:33;3.90;99.90
3842;DHT22;1936;47.074;15.336;2024-01-07T07:33:38;3.90;99.90
3842;DHT22;1936;47.074;15.336;2024-01-07T07:35:43;3.90;99.90
3842;DHT22;1936;47.074;15.336;2024-01-07T07:37:46;3.90;99.90
3842;DHT22;1936;47.074;15.336;2024-01-07T07:39:50;3.90;99.90
3842;DHT22;1936;47.074;15.336;2024-01-07T07:41:53;4.00;99.90
3842;DHT22;1936;47.074;15.336;2024-01-07T07:43:57;4.00;99.90
3842;DHT22;1936;47.074;15.336;2024-01-07T07:46:00;4.00;99.90
3842;DHT22;1936;47.074;15.336;2024-01-07T07:48:06;4.00;99.90
3842;DHT22;1936;47.074;15.336;2024-01-07T07:50:09;4.00;99.90
3842;DHT22;1936;47.074;15.336;2024-01-07T07:52:15;4.10;99.90
3842;DHT22;1936;47.074;15.336;2024-01-07T07:54:26;4.10;99.90
3842;DHT22;1936;47.074;15.336;2024-01-07T07:56:30;4.10;99.90
3842;DHT22;1936;47.074;15.336;2024-01-07T07:58:33;4.10;99.90
3842;DHT22;1936;47.074;15.336;2024-01-07T08:00:35;4.10;99.90
3842;DHT22;1936;47.074;15.336;2024-01-07T08:02:40;4.10;99.90
3842;DHT22;1936;47.074;15.336;2024-01-07T08:04:44;4.10;99.90
3842;DHT22;1936;47.074;15.336;2024-01-07T08:06:47;4.10;99.90
3842;DHT22;1936;47.074;15.336;2024-01-07T08:08:51;4.10;99.90
3842;DHT22;1936;47.074;15.336;2024-01-07T08:10:55;4.10;99.90
3842;DHT22;1936;47.074;15.336;2024-01-07T08:12:59;4.10;99.90
3842;DHT22;1936;47.074;15.336;2024-01-07T08:15:01;4.10;99.90
3842;DHT22;1936;47.074;15.336;2024-01-07T08:17:05;4.10;99.90
3842;DHT22;1936;47.074;15.336;2024-01-07T08:19:08;4.10;99.90
3842;DHT22;1936;47.074;15.336;2024-01-07T08:21:12;4.10;99.90
3842;DHT22;1936;47.074;15.336;2024-01-07T08:23:16;4.10;99.90
3842;DHT22;1936;47.074;15.336;2024-01-07T08:25:21;4.10;99.90
3842;DHT22;1936;47.074;15.336;2024-01-07T08:27:24;4.10;99.90
3842;DHT22;1936;47.074;15.336;2024-01-07T08:29:31;4.10;99.90
3842;DHT22;1936;47.074;15.336;2024-01-07T08:31:34;4.10;99.90
3842;DHT22;1936;47.074;15.336;2024-01-07T08:33:38;4.10;99.90
3842;DHT22;1936;47.074;15.336;2024-01-07T08:35:41;4.10;99.90
3842;DHT22;1936;47.074;15.336;2024-01-07T08:37:45;4.10;99.90
3842;DHT22;1936;47.074;15.336;2024-01-07T08:39:48;4.00;99.90
3842;DHT22;1936;47.074;15.336;2024-01-07T08:41:53;4.00;99.90
3842;DHT22;1936;47.074;15.336;2024-01-07T08:43:57;4.00;99.90
3842;DHT22;1936;47.074;15.336;2024-01-07T08:46:00;4.10;99.90
3842;DHT22;1936;47.074;15.336;2024-01-07T08:48:02;4.00;99.90
3842;DHT22;1936;47.074;15.336;2024-01-07T08:50:06;4.00;99.90
3842;DHT22;1936;47.074;15.336;2024-01-07T08:52:10;4.10;99.90
3842;DHT22;1936;47.074;15.336;2024-01-07T08:54:13;4.00;99.90
3842;DHT22;1936;47.074;15.336;2024-01-07T08:56:17;4.10;99.90
3842;DHT22;1936;47.074;15.336;2024-01-07T08:58:21;4.00;99.90
3842;DHT22;1936;47.074;15.336;2024-01-07T09:00:25;4.00;99.90
3842;DHT22;1936;47.074;15.336;2024-01-07T09:02:33;4.00;99.90
3842;DHT22;1936;47.074;15.336;2024-01-07T09:04:41;4.00;99.90
3842;DHT22;1936;47.074;15.336;2024-01-07T09:06:45;4.00;99.90
3842;DHT22;1936;47.074;15.336;2024-01-07T09:08:48;4.00;99.90
3842;DHT22;1936;47.074;15.336;2024-01-07T09:10:52;4.10;99.90
3842;DHT22;1936;47.074;15.336;2024-01-07T09:12:55;4.10;99.90
3842;DHT22;1936;47.074;15.336;2024-01-07T09:15:00;4.10;99.90
3842;DHT22;1936;47.074;15.336;2024-01-07T09:17:03;4.10;99.90
3842;DHT22;1936;47.074;15.336;2024-01-07T09:19:07;4.10;99.90
3842;DHT22;1936;47.074;15.336;2024-01-07T09:21:15;4.10;99.90
3842;DHT22;1936;47.074;15.336;2024-01-07T09:23:18;4.20;99.90
3842;DHT22;1936;47.074;15.336;2024-01-07T09:25:22;4.20;99.90
3842;DHT22;1936;47.074;15.336;2024-01-07T09:27:25;4.10;99.90
3842;DHT22;1936;47.074;15.336;2024-01-07T09:29:27;4.10;99.90
3842;DHT22;1936;47.074;15.336;2024-01-07T09:31:32;4.20;99.90
3842;DHT22;1936;47.074;15.336;2024-01-07T09:33:36;4.20;99.90
3842;DHT22;1936;47.074;15.336;2024-01-07T09:35:39;4.10;99.90
3842;DHT22;1936;47.074;15.336;2024-01-07T09:37:42;4.20;99.90
3842;DHT22;1936;47.074;15.336;2024-01-07T09:39:46;4.20;99.90
3842;DHT22;1936;47.074;15.336;2024-01-07T09:41:50;4.20;99.90
3842;DHT22;1936;47.074;15.336;2024-01-07T09:43:53;4.20;99.90
3842;DHT22;1936;47.074;15.336;2024-01-07T09:46:00;4.20;99.90
3842;DHT22;1936;47.074;15.336;2024-01-07T09:48:05;4.20;99.90
3842;DHT22;1936;47.074;15.336;2024-01-07T09:50:09;4.20;99.90
3842;DHT22;1936;47.074;15.336;2024-01-07T09:52:13;4.20;99.90
3842;DHT22;1936;47.074;15.336;2024-01-07T09:54:17;4.30;99.90
3842;DHT22;1936;47.074;15.336;2024-01-07T09:56:25;4.30;99.90
3842;DHT22;1936;47.074;15.336;2024-01-07T09:58:29;4.30;99.90
3842;DHT22;1936;47.074;15.336;2024-01-07T10:00:32;4.30;99.90
3842;DHT22;1936;47.074;15.336;2024-01-07T10:02:36;4.30;99.90
3842;DHT22;1936;47.074;15.336;2024-01-07T10:04:44;4.40;99.90
3842;DHT22;1936;47.074;15.336;2024-01-07T10:06:49;4.40;99.90
3842;DHT22;1936;47.074;15.336;2024-01-07T10:08:52;4.40;99.90
3842;DHT22;1936;47.074;15.336;2024-01-07T10:10:55;4.40;99.90
3842;DHT22;1936;47.074;15.336;2024-01-07T10:12:59;4.40;99.90
3842;DHT22;1936;47.074;15.336;2024-01-07T10:15:03;4.40;99.90
3842;DHT22;1936;47.074;15.336;2024-01-07T10:17:14;4.50;99.90
3842;DHT22;1936;47.074;15.336;2024-01-07T10:19:20;4.60;99.90
3842;DHT22;1936;47.074;15.336;2024-01-07T10:21:26;4.50;99.90
3842;DHT22;1936;47.074;15.336;2024-01-07T10:23:29;4.50;99.90
3842;DHT22;1936;47.074;15.336;2024-01-07T10:25:33;4.50;99.90
3842;DHT22;1936;47.074;15.336;2024-01-07T10:27:36;4.50;99.90
3842;DHT22;1936;47.074;15.336;2024-01-07T10:29:40;4.50;99.90
3842;DHT22;1936;47.074;15.336;2024-01-07T10:31:44;4.60;99.90
3842;DHT22;1936;47.074;15.336;2024-01-07T10:33:47;4.60;99.90
3842;DHT22;1936;47.074;15.336;2024-01-07T10:35:52;4.60;99.90
3842;DHT22;1936;47.074;15.336;2024-01-07T10:38:01;4.60;99.90
3842;DHT22;1936;47.074;15.336;2024-01-07T10:40:05;4.60;99.90
3842;DHT22;1936;47.074;15.336;2024-01-07T10:42:09;4.60;99.90
3842;DHT22;1936;47.074;15.336;2024-01-07T10:44:13;4.60;99.90
3842;DHT22;1936;47.074;15.336;2024-01-07T10:46:21;4.60;99.90
3842;DHT22;1936;47.074;15.336;2024-01-07T10:48:25;4.60;99.90
3842;DHT22;1936;47.074;15.336;2024-01-07T10:50:32;4.60;99.90
3842;DHT22;1936;47.074;15.336;2024-01-07T10:52:36;4.70;99.90
3842;DHT22;1936;47.074;15.336;2024-01-07T10:54:44;4.70;99.90
3842;DHT22;1936;47.074;15.336;2024-01-07T10:56:51;4.70;99.90
3842;DHT22;1936;47.074;15.336;2024-01-07T10:58:58;4.70;99.90
3842;DHT22;1936;47.074;15.336;2024-01-07T11:01:02;4.70;99.90
3842;DHT22;1936;47.074;15.336;2024-01-07T11:03:11;4.70;99.90
3842;DHT22;1936;47.074;15.336;2024-01-07T11:05:38;4.70;99.90
3842;DHT22;1936;47.074;15.336;2024-01-07T11:07:48;4.70;99.90
3842;DHT22;1936;47.074;15.336;2024-01-07T11:10:08;4.80;99.90
3842;DHT22;1936;47.074;15.336;2024-01-07T11:12:14;4.80;99.90
3842;DHT22;1936;47.074;15.336;2024-01-07T11:14:35;4.80;99.90
3842;DHT22;1936;47.074;15.336;2024-01-07T11:16:42;4.80;99.90
3842;DHT22;1936;47.074;15.336;2024-01-07T11:23:27;4.90;99.90
3842;DHT22;1936;47.074;15.336;2024-01-07T11:25:32;5.00;99.90
3842;DHT22;1936;47.074;15.336;2024-01-07T11:27:36;5.00;99.90
3842;DHT22;1936;47.074;15.336;2024-01-07T11:29:41;5.00;99.90
3842;DHT22;1936;47.074;15.336;2024-01-07T11:31:44;5.00;99.90
3842;DHT22;1936;47.074;15.336;2024-01-07T11:33:50;5.10;99.90
3842;DHT22;1936;47.074;15.336;2024-01-07T11:35:54;5.10;99.90
3842;DHT22;1936;47.074;15.336;2024-01-07T11:37:58;5.10;99.90
3842;DHT22;1936;47.074;15.336;2024-01-07T11:40:04;5.20;99.90
3842;DHT22;1936;47.074;15.336;2024-01-07T11:42:10;5.20;99.90
3842;DHT22;1936;47.074;15.336;2024-01-07T11:44:16;5.20;99.90
3842;DHT22;1936;47.074;15.336;2024-01-07T11:49:09;5.30;99.90
3842;DHT22;1936;47.074;15.336;2024-01-07T11:51:13;5.30;99.90
3842;DHT22;1936;47.074;15.336;2024-01-07T11:53:16;5.40;99.90
3842;DHT22;1936;47.074;15.336;2024-01-07T11:55:20;5.40;99.90
3842;DHT22;1936;47.074;15.336;2024-01-07T11:57:28;5.40;99.90
3842;DHT22;1936;47.074;15.336;2024-01-07T11:59:42;5.40;99.90
3842;DHT22;1936;47.074;15.336;2024-01-07T12:01:46;5.30;99.90
3842;DHT22;1936;47.074;15.336;2024-01-07T12:03:50;5.40;99.90
3842;DHT22;1936;47.074;15.336;2024-01-07T12:05:54;5.40;99.90
3842;DHT22;1936;47.074;15.336;2024-01-07T12:07:59;5.40;99.90
3842;DHT22;1936;47.074;15.336;2024-01-07T12:10:06;5.40;99.90
3842;DHT22;1936;47.074;15.336;2024-01-07T12:12:09;5.30;99.90
3842;DHT22;1936;47.074;15.336;2024-01-07T12:14:14;5.40;99.90
3842;DHT22;1936;47.074;15.336;2024-01-07T12:16:18;5.40;99.90
3842;DHT22;1936;47.074;15.336;2024-01-07T12:18:22;5.40;99.90
3842;DHT22;1936;47.074;15.336;2024-01-07T12:20:28;5.40;98.80
3842;DHT22;1936;47.074;15.336;2024-01-07T12:22:30;5.40;99.00
3842;DHT22;1936;47.074;15.336;2024-01-07T12:24:34;5.40;96.90
3842;DHT22;1936;47.074;15.336;2024-01-07T12:26:37;5.40;99.40
3842;DHT22;1936;47.074;15.336;2024-01-07T12:28:41;5.30;98.10
3842;DHT22;1936;47.074;15.336;2024-01-07T12:30:47;5.30;99.90
3842;DHT22;1936;47.074;15.336;2024-01-07T12:33:19;5.30;98.50
3842;DHT22;1936;47.074;15.336;2024-01-07T12:35:25;5.40;97.70
3842;DHT22;1936;47.074;15.336;2024-01-07T12:37:29;5.40;99.30
3842;DHT22;1936;47.074;15.336;2024-01-07T12:39:31;5.40;97.70
3842;DHT22;1936;47.074;15.336;2024-01-07T12:41:34;5.40;97.30
3842;DHT22;1936;47.074;15.336;2024-01-07T12:43:38;5.40;97.10
3842;DHT22;1936;47.074;15.336;2024-01-07T12:45:41;5.40;97.10
3842;DHT22;1936;47.074;15.336;2024-01-07T12:47:46;5.40;97.80
3842;DHT22;1936;47.074;15.336;2024-01-07T12:49:50;5.40;97.30
3842;DHT22;1936;47.074;15.336;2024-01-07T12:51:53;5.40;97.80
3842;DHT22;1936;47.074;15.336;2024-01-07T12:53:56;5.40;98.00
3842;DHT22;1936;47.074;15.336;2024-01-07T12:56:05;5.40;97.80
3842;DHT22;1936;47.074;15.336;2024-01-07T12:58:08;5.40;98.30
3842;DHT22;1936;47.074;15.336;2024-01-07T13:00:12;5.40;97.30
3842;DHT22;1936;47.074;15.336;2024-01-07T13:02:16;5.40;96.50
3842;DHT22;1936;47.074;15.336;2024-01-07T13:04:20;5.40;94.90
3842;DHT22;1936;47.074;15.336;2024-01-07T13:06:23;5.40;95.10
3842;DHT22;1936;47.074;15.336;2024-01-07T13:08:27;5.30;96.40
3842;DHT22;1936;47.074;15.336;2024-01-07T13:10:30;5.30;96.80
3842;DHT22;1936;47.074;15.336;2024-01-07T13:12:33;5.30;96.80
3842;DHT22;1936;47.074;15.336;2024-01-07T13:22:48;5.10;95.30
3842;DHT22;1936;47.074;15.336;2024-01-07T13:24:52;5.10;95.80
3842;DHT22;1936;47.074;15.336;2024-01-07T13:26:56;5.10;96.40
3842;DHT22;1936;47.074;15.336;2024-01-07T13:34:47;5.20;95.40
3842;DHT22;1936;47.074;15.336;2024-01-07T13:36:51;5.20;94.90
3842;DHT22;1936;47.074;15.336;2024-01-07T13:38:56;5.10;94.30
3842;DHT22;1936;47.074;15.336;2024-01-07T13:40:59;5.10;94.90
3842;DHT22;1936;47.074;15.336;2024-01-07T13:43:03;5.10;93.60
3842;DHT22;1936;47.074;15.336;2024-01-07T13:45:07;5.20;94.70
3842;DHT22;1936;47.074;15.336;2024-01-07T13:49:39;5.10;95.80
3842;DHT22;1936;47.074;15.336;2024-01-07T13:51:44;5.00;94.20
3842;DHT22;1936;47.074;15.336;2024-01-07T13:53:48;5.10;94.00
3842;DHT22;1936;47.074;15.336;2024-01-07T13:55:52;5.00;94.00
3842;DHT22;1936;47.074;15.336;2024-01-07T13:57:56;5.00;95.20
3842;DHT22;1936;47.074;15.336;2024-01-07T14:00:01;5.10;95.00
3842;DHT22;1936;47.074;15.336;2024-01-07T14:07:57;5.00;94.90
3842;DHT22;1936;47.074;15.336;2024-01-07T14:10:01;5.00;93.70
3842;DHT22;1936;47.074;15.336;2024-01-07T14:12:07;5.00;94.40
3842;DHT22;1936;47.074;15.336;2024-01-07T14:14:10;5.00;94.00